createdAt,value
2022-12-31T00:01:16.375Z,97600.88
2022-12-31T00:03:45.336Z,97607.53
2022-12-31T00:06:20.390Z,97602.25
2022-12-31T00:08:49.564Z,97602.25
2022-12-31T00:11:18.511Z,97609.09
2022-12-31T00:13:47.612Z,97606.44
2022-12-31T00:16:20.807Z,97617.84
2022-12-31T00:18:51.815Z,97615.19
2022-12-31T00:21:21.305Z,97620.50
2022-12-31T00:23:50.406Z,97610.75
2022-12-31T00:26:22.073Z,97622.19
2022-12-31T00:28:50.431Z,97613.41
2022-12-31T00:31:23.875Z,97612.44
2022-12-31T00:33:52.750Z,97613.28
2022-12-31T00:36:23.901Z,97615.94
2022-12-31T00:38:54.546Z,97611.47
2022-12-31T00:41:24.206Z,97621.22
2022-12-31T00:43:52.696Z,97621.22
2022-12-31T00:46:23.092Z,97625.69
2022-12-31T00:48:51.667Z,97622.06
2022-12-31T00:51:23.790Z,97629.19
2022-12-31T00:53:52.266Z,97635.31
2022-12-31T00:56:22.733Z,97636.28
2022-12-31T00:58:51.827Z,97648.69
2022-12-31T01:01:24.167Z,97644.34
2022-12-31T01:03:57.082Z,97642.81
2022-12-31T01:06:25.854Z,97641.97
2022-12-31T01:08:55.595Z,97638.81
2022-12-31T01:11:28.969Z,97650.34
2022-12-31T01:13:59.640Z,97649.69
2022-12-31T01:16:32.403Z,97663.75
2022-12-31T01:19:03.122Z,97672.69
2022-12-31T01:21:31.797Z,97677.13
2022-12-31T01:24:00.799Z,97667.53
2022-12-31T01:26:29.626Z,97673.66
2022-12-31T01:28:58.247Z,97677.28
2022-12-31T01:31:28.228Z,97670.03
2022-12-31T01:33:56.955Z,97670.88
2022-12-31T01:36:27.547Z,97669.88
2022-12-31T01:38:56.888Z,97669.03
2022-12-31T01:41:28.027Z,97668.22
2022-12-31T01:43:58.779Z,97670.72
2022-12-31T01:46:41.676Z,97665.56
2022-12-31T01:49:19.582Z,97665.56
2022-12-31T01:51:52.686Z,97666.38
2022-12-31T01:54:24.196Z,97662.94
2022-12-31T01:56:55.200Z,97662.09
2022-12-31T01:59:27.019Z,97673.66
2022-12-31T02:01:57.358Z,97666.69
2022-12-31T02:04:27.534Z,97671.16
2022-12-31T02:06:59.136Z,97674.91
2022-12-31T02:09:27.621Z,97680.06
2022-12-31T02:11:55.886Z,97684.53
2022-12-31T02:14:28.166Z,97683.84
2022-12-31T02:17:08.865Z,97682.03
2022-12-31T02:20:15.545Z,97670.88
2022-12-31T02:23:17.142Z,97674.22
2022-12-31T02:26:06.441Z,97670.88
2022-12-31T02:28:57.365Z,97677.84
2022-12-31T02:31:33.988Z,97683.13
2022-12-31T02:34:07.776Z,97679.53
2022-12-31T02:36:39.909Z,97675.75
2022-12-31T02:39:10.535Z,97666.00
2022-12-31T02:41:54.018Z,97678.41
2022-12-31T02:44:24.942Z,97679.38
2022-12-31T02:47:07.868Z,97666.28
2022-12-31T02:49:45.009Z,97667.09
2022-12-31T02:52:22.939Z,97679.53
2022-12-31T02:55:00.190Z,97679.38
2022-12-31T02:57:34.870Z,97670.59
2022-12-31T03:00:24.738Z,97679.38
2022-12-31T03:02:56.185Z,97676.03
2022-12-31T03:05:28.326Z,97674.38
2022-12-31T03:07:56.782Z,97681.47
2022-12-31T03:10:25.088Z,97693.88
2022-12-31T03:12:52.365Z,97694.84
2022-12-31T03:15:24.533Z,97705.44
2022-12-31T03:17:59.406Z,97703.78
2022-12-31T03:20:49.091Z,97701.13
2022-12-31T03:23:22.397Z,97705.72
2022-12-31T03:25:49.897Z,97700.28
2022-12-31T03:28:21.161Z,97700.44
2022-12-31T03:30:52.229Z,97702.09
2022-12-31T03:33:23.097Z,97705.59
2022-12-31T03:35:51.888Z,97696.66
2022-12-31T03:38:21.020Z,97703.78
2022-12-31T03:40:54.464Z,97697.50
2022-12-31T03:43:22.874Z,97702.66
2022-12-31T03:45:52.624Z,97702.50
2022-12-31T03:48:24.194Z,97712.25
2022-12-31T03:50:52.912Z,97711.31
2022-12-31T03:53:21.359Z,97712.13
2022-12-31T03:55:53.067Z,97713.81
2022-12-31T03:58:21.513Z,97719.09
2022-12-31T04:00:50.163Z,97728.84
2022-12-31T04:03:18.684Z,97725.22
2022-12-31T04:05:54.610Z,97721.63
2022-12-31T04:08:22.986Z,97722.44
2022-12-31T04:10:51.399Z,97724.13
2022-12-31T04:13:19.752Z,97723.28
2022-12-31T04:15:51.561Z,97727.72
2022-12-31T04:18:19.873Z,97734.72
2022-12-31T04:20:49.581Z,97740.81
2022-12-31T04:23:18.693Z,97740.97
2022-12-31T04:25:46.991Z,97746.97
2022-12-31T04:28:15.284Z,97744.19
2022-12-31T04:30:43.533Z,97754.78
2022-12-31T04:33:11.996Z,97755.63
2022-12-31T04:35:40.327Z,97762.59
2022-12-31T04:38:09.935Z,97752.84
2022-12-31T04:40:58.728Z,97757.28
2022-12-31T04:43:27.038Z,97764.53
2022-12-31T04:45:55.290Z,97760.06
2022-12-31T04:48:23.592Z,97761.88
2022-12-31T04:50:51.848Z,97759.22
2022-12-31T04:53:21.446Z,97752.28
2022-12-31T04:55:49.669Z,97746.13
2022-12-31T04:58:18.025Z,97752.41
2022-12-31T05:00:49.788Z,97757.00
2022-12-31T05:03:18.682Z,97743.91
2022-12-31T05:05:46.992Z,97751.16
2022-12-31T05:08:15.786Z,97746.84
2022-12-31T05:10:47.535Z,97751.59
2022-12-31T05:13:16.467Z,97756.88
2022-12-31T05:15:44.823Z,97757.03
2022-12-31T05:18:13.068Z,97770.41
2022-12-31T05:20:41.573Z,97769.56
2022-12-31T05:23:10.319Z,97779.31
2022-12-31T05:25:38.978Z,97770.69
2022-12-31T05:28:08.750Z,97770.69
2022-12-31T05:30:37.152Z,97774.28
2022-12-31T05:33:05.758Z,97774.44
2022-12-31T05:35:34.098Z,97770.97
2022-12-31T05:38:03.136Z,97772.91
2022-12-31T05:40:31.368Z,97768.59
2022-12-31T05:42:59.644Z,97763.31
2022-12-31T05:45:31.132Z,97772.19
2022-12-31T05:47:59.922Z,97782.09
2022-12-31T05:50:28.242Z,97794.34
2022-12-31T05:52:56.534Z,97792.69
2022-12-31T05:55:24.969Z,97798.00
2022-12-31T05:57:53.179Z,97806.06
2022-12-31T06:00:21.556Z,97806.06
2022-12-31T06:02:51.187Z,97816.53
2022-12-31T06:05:25.742Z,97810.38
2022-12-31T06:07:54.475Z,97814.88
2022-12-31T06:10:22.730Z,97827.13
2022-12-31T06:12:50.975Z,97820.84
2022-12-31T06:15:19.459Z,97819.03
2022-12-31T06:17:47.700Z,97813.03
2022-12-31T06:20:17.505Z,97815.53
2022-12-31T06:22:45.749Z,97815.53
2022-12-31T06:25:14.357Z,97818.19
2022-12-31T06:27:42.613Z,97821.69
2022-12-31T06:30:13.570Z,97808.44
2022-12-31T06:32:42.345Z,97818.06
2022-12-31T06:35:11.224Z,97818.06
2022-12-31T06:37:40.803Z,97813.59
2022-12-31T06:40:10.960Z,97810.81
2022-12-31T06:42:39.222Z,97812.47
2022-12-31T06:45:09.192Z,97813.31
2022-12-31T06:47:37.394Z,97815.84
2022-12-31T06:50:07.230Z,97810.53
2022-12-31T06:52:35.543Z,97816.66
2022-12-31T06:55:07.104Z,97819.28
2022-12-31T06:57:36.178Z,97824.44
2022-12-31T07:00:06.820Z,97823.50
2022-12-31T07:03:00.500Z,97826.16
2022-12-31T07:05:38.950Z,97829.75
2022-12-31T07:08:23.153Z,97841.19
2022-12-31T07:11:01.093Z,97843.69
2022-12-31T07:13:57.444Z,97836.59
2022-12-31T07:16:40.699Z,97836.59
2022-12-31T07:19:24.145Z,97830.31
2022-12-31T07:21:54.574Z,97830.19
2022-12-31T07:24:23.900Z,97824.88
2022-12-31T07:27:12.622Z,97825.88
2022-12-31T07:30:00.239Z,97829.34
2022-12-31T07:32:59.403Z,97827.66
2022-12-31T07:35:39.083Z,97844.41
2022-12-31T07:38:17.583Z,97851.50
2022-12-31T07:40:59.805Z,97850.66
2022-12-31T07:43:37.494Z,97856.81
2022-12-31T07:46:14.837Z,97874.34
2022-12-31T07:48:43.608Z,97871.69
2022-12-31T07:51:13.043Z,97870.75
2022-12-31T07:53:41.330Z,97881.22
2022-12-31T07:56:11.133Z,97883.00
2022-12-31T07:59:01.267Z,97886.50
2022-12-31T08:01:42.079Z,97879.38
2022-12-31T08:04:24.633Z,97874.06
2022-12-31T08:07:04.452Z,97888.03
2022-12-31T08:09:44.151Z,97892.34
2022-12-31T08:12:12.826Z,97899.19
2022-12-31T08:14:47.486Z,97902.66
2022-12-31T08:17:19.367Z,97902.38
2022-12-31T08:19:48.646Z,97907.41
2022-12-31T08:22:38.948Z,97907.28
2022-12-31T08:25:19.710Z,97907.13
2022-12-31T08:28:01.739Z,97904.22
2022-12-31T08:30:46.901Z,97898.63
2022-12-31T08:33:20.704Z,97906.47
2022-12-31T08:36:05.083Z,97907.06
2022-12-31T08:38:41.797Z,97911.22
2022-12-31T08:41:21.327Z,97904.81
2022-12-31T08:44:03.006Z,97910.66
2022-12-31T08:46:40.677Z,97914.84
2022-12-31T08:49:11.366Z,97916.25
2022-12-31T08:51:40.283Z,97927.25
2022-12-31T08:54:11.597Z,97924.34
2022-12-31T08:56:50.620Z,97918.47
2022-12-31T08:59:33.104Z,97923.34
2022-12-31T09:02:24.625Z,97912.47
2022-12-31T09:05:03.247Z,97906.59
2022-12-31T09:07:39.282Z,97899.06
2022-12-31T09:10:20.426Z,97904.63
2022-12-31T09:13:01.421Z,97892.63
2022-12-31T09:15:37.274Z,97896.25
2022-12-31T09:18:09.648Z,97900.13
2022-12-31T09:20:43.265Z,97895.25
2022-12-31T09:23:13.687Z,97894.81
2022-12-31T09:25:47.228Z,97911.16
2022-12-31T09:28:24.491Z,97915.16
2022-12-31T09:31:01.435Z,97912.09
2022-12-31T09:33:42.862Z,97912.47
2022-12-31T09:36:20.871Z,97905.78
2022-12-31T09:38:55.610Z,97908.81
2022-12-31T09:41:46.712Z,97894.28
2022-12-31T09:44:59.228Z,97905.72
2022-12-31T09:48:19.399Z,97902.19
2022-12-31T09:51:08.416Z,97896.66
2022-12-31T09:54:11.958Z,97897.03
2022-12-31T09:56:47.189Z,97896.03
2022-12-31T09:59:25.237Z,97890.13
2022-12-31T10:02:01.979Z,97881.88
2022-12-31T10:04:57.510Z,97888.03
2022-12-31T10:07:52.793Z,97885.97
2022-12-31T10:10:29.290Z,97883.19
2022-12-31T10:13:20.145Z,97888.28
2022-12-31T10:16:04.751Z,97884.88
2022-12-31T10:19:37.408Z,97890.47
2022-12-31T10:22:28.133Z,97887.88
2022-12-31T10:25:20.750Z,97880.34
2022-12-31T10:28:16.176Z,97870.59
2022-12-31T10:30:57.740Z,97866.50
2022-12-31T10:33:43.726Z,97869.22
2022-12-31T10:36:21.145Z,97862.88
2022-12-31T10:39:10.473Z,97870.91
2022-12-31T10:42:24.327Z,97867.06
2022-12-31T10:45:28.738Z,97859.06
2022-12-31T10:49:00.531Z,97861.22
2022-12-31T10:52:28.822Z,97864.75
2022-12-31T10:55:42.612Z,97863.72
2022-12-31T10:58:51.976Z,97868.22
2022-12-31T11:01:26.959Z,97872.38
2022-12-31T11:04:44.583Z,97884.06
2022-12-31T11:08:02.148Z,97890.25
2022-12-31T11:11:19.050Z,97889.59
2022-12-31T11:14:42.363Z,97894.28
2022-12-31T11:17:38.181Z,97885.59
2022-12-31T11:20:32.315Z,97879.25
2022-12-31T11:23:15.392Z,97885.44
2022-12-31T11:25:58.613Z,97886.25
2022-12-31T11:29:03.998Z,97869.25
2022-12-31T11:31:52.321Z,97871.91
2022-12-31T11:34:53.379Z,97877.25
2022-12-31T11:37:38.531Z,97878.91
2022-12-31T11:40:28.026Z,97870.72
2022-12-31T11:43:00.763Z,97876.91
2022-12-31T11:45:50.931Z,97867.88
2022-12-31T11:48:30.661Z,97874.25
2022-12-31T11:51:31.520Z,97868.75
2022-12-31T12:56:22.720Z,97858.94
2022-12-31T12:59:13.838Z,97853.53
2022-12-31T13:01:49.863Z,97849.00
2022-12-31T13:04:47.827Z,97841.75
2022-12-31T13:07:37.024Z,97841.34
2022-12-31T13:10:23.329Z,97836.28
2022-12-31T13:13:23.314Z,97825.34
2022-12-31T13:16:00.368Z,97827.84
2022-12-31T13:18:42.866Z,97824.63
2022-12-31T13:21:30.051Z,97825.34
2022-12-31T13:24:05.281Z,97814.94
2022-12-31T13:26:40.950Z,97819.50
2022-12-31T13:29:18.860Z,97811.00
2022-12-31T13:31:49.039Z,97815.88
2022-12-31T13:34:22.533Z,97813.03
2022-12-31T13:36:53.079Z,97819.22
2022-12-31T13:39:27.041Z,97831.38
2022-12-31T13:42:02.361Z,97828.06
2022-12-31T13:44:39.922Z,97838.03
2022-12-31T13:47:14.464Z,97832.88
2022-12-31T13:49:48.632Z,97836.69
2022-12-31T13:52:30.428Z,97839.72
2022-12-31T13:55:09.368Z,97854.22
2022-12-31T13:57:44.053Z,97845.06
2022-12-31T14:00:22.921Z,97856.22
2022-12-31T14:03:03.187Z,97864.75
2022-12-31T14:05:37.536Z,97857.41
2022-12-31T14:08:07.748Z,97858.91
2022-12-31T14:10:51.883Z,97857.06
2022-12-31T14:13:45.260Z,97851.75
2022-12-31T14:16:23.789Z,97848.06
2022-12-31T14:19:06.596Z,97859.56
2022-12-31T14:21:44.312Z,97857.88
2022-12-31T14:24:17.530Z,97856.06
2022-12-31T14:26:50.491Z,97865.91
2022-12-31T14:29:33.179Z,97862.59
2022-12-31T14:32:43.070Z,97867.25
2022-12-31T14:35:33.754Z,97875.59
2022-12-31T14:38:15.731Z,97873.25
2022-12-31T14:40:57.239Z,97864.75
2022-12-31T14:43:38.262Z,97858.94
2022-12-31T14:46:15.710Z,97860.06
2022-12-31T14:48:56.719Z,97865.75
2022-12-31T14:51:29.706Z,97862.56
2022-12-31T14:53:59.625Z,97866.38
2022-12-31T14:56:43.794Z,97873.91
2022-12-31T14:59:27.538Z,97875.22
2022-12-31T15:01:58.342Z,97872.88
2022-12-31T15:04:35.584Z,97871.72
2022-12-31T15:07:14.623Z,97858.69
2022-12-31T15:10:08.445Z,97869.22
2022-12-31T15:13:04.318Z,97866.38
2022-12-31T15:16:22.415Z,97872.34
2022-12-31T15:19:51.814Z,97881.16
2022-12-31T15:22:39.340Z,97883.97
2022-12-31T15:25:39.966Z,97878.63
2022-12-31T15:28:28.947Z,97876.94
2022-12-31T15:31:10.742Z,97886.44
2022-12-31T15:33:54.324Z,97882.41
2022-12-31T15:36:26.177Z,97884.56
2022-12-31T15:39:27.013Z,97889.53
2022-12-31T15:44:55.427Z,97894.94
2022-12-31T15:47:30.147Z,97902.44
2022-12-31T15:50:03.231Z,97898.25
2022-12-31T15:52:41.594Z,97893.25
2022-12-31T15:55:24.243Z,97894.56
2022-12-31T15:57:53.361Z,97897.38
2022-12-31T16:00:25.008Z,97906.53
2022-12-31T16:02:55.944Z,97910.50
2022-12-31T16:05:26.686Z,97890.81
2022-12-31T16:07:56.238Z,97898.94
2022-12-31T16:10:30.814Z,97903.09
2022-12-31T16:13:01.040Z,97905.22
2022-12-31T16:15:32.955Z,97908.34
2022-12-31T16:18:04.478Z,97916.66
2022-12-31T16:20:35.634Z,97928.91
2022-12-31T16:23:20.984Z,97933.03
2022-12-31T16:25:52.708Z,97928.19
2022-12-31T16:28:24.960Z,97927.66
2022-12-31T16:31:02.763Z,97924.81
2022-12-31T16:33:32.621Z,97923.41
2022-12-31T16:36:02.731Z,97920.41
2022-12-31T16:38:35.956Z,97918.34
2022-12-31T16:41:19.847Z,97916.31
2022-12-31T16:43:49.806Z,97909.44
2022-12-31T16:46:26.292Z,97907.28
2022-12-31T16:48:57.421Z,97909.53
2022-12-31T16:51:30.394Z,97905.50
2022-12-31T16:53:59.872Z,97911.94
2022-12-31T16:56:35.266Z,97907.53
2022-12-31T16:59:08.313Z,97916.50
2022-12-31T17:01:38.687Z,97918.63
2022-12-31T17:04:12.826Z,97916.25
2022-12-31T17:06:41.221Z,97915.75
2022-12-31T17:09:15.118Z,97916.06
2022-12-31T17:11:53.986Z,97909.50
2022-12-31T17:14:25.239Z,97915.25
2022-12-31T17:17:03.021Z,97913.91
2022-12-31T17:19:42.119Z,97916.19
2022-12-31T17:22:17.060Z,97914.78
2022-12-31T17:24:48.560Z,97912.59
2022-12-31T17:27:18.821Z,97924.22
2022-12-31T17:29:48.324Z,97921.16
2022-12-31T17:32:32.264Z,97924.94
2022-12-31T17:35:00.597Z,97934.06
2022-12-31T17:37:31.288Z,97932.38
2022-12-31T17:40:24.980Z,97922.88
2022-12-31T17:42:51.895Z,97924.03
2022-12-31T17:45:22.914Z,97927.78
2022-12-31T17:47:53.958Z,97920.81
2022-12-31T17:50:25.935Z,97919.31
2022-12-31T17:52:57.721Z,97931.88
2022-12-31T17:55:26.106Z,97923.22
2022-12-31T17:57:58.388Z,97926.88
2022-12-31T18:00:28.284Z,97925.50
2022-12-31T18:02:56.725Z,97923.28
2022-12-31T18:05:25.957Z,97919.63
2022-12-31T18:07:54.531Z,97913.09
2022-12-31T18:10:25.690Z,97926.50
2022-12-31T18:12:55.699Z,97919.97
2022-12-31T18:15:25.925Z,97920.81
2022-12-31T18:17:54.274Z,97914.97
2022-12-31T18:20:22.867Z,97921.63
2022-12-31T18:22:51.882Z,97935.19
2022-12-31T18:25:23.079Z,97950.75
2022-12-31T18:27:52.955Z,97937.91
2022-12-31T18:30:23.514Z,97945.44
2022-12-31T18:32:52.119Z,97933.47
2022-12-31T18:38:15.016Z,97941.28
2022-12-31T18:40:46.805Z,97931.81
2022-12-31T18:43:17.774Z,97934.59
2022-12-31T18:45:48.697Z,97932.09
2022-12-31T18:48:18.052Z,97926.94
2022-12-31T18:50:47.566Z,97921.78
2022-12-31T18:53:18.721Z,97922.06
2022-12-31T18:55:50.719Z,97919.53
2022-12-31T18:58:19.349Z,97921.50
2022-12-31T19:00:50.310Z,97931.13
2022-12-31T19:03:21.525Z,97932.38
2022-12-31T19:05:51.924Z,97936.31
2022-12-31T19:08:21.622Z,97938.25
2022-12-31T19:10:51.950Z,97933.09
2022-12-31T19:13:22.974Z,97931.72
2022-12-31T19:15:55.617Z,97943.31
2022-12-31T19:18:24.028Z,97939.81
2022-12-31T19:20:53.344Z,97943.59
2022-12-31T19:23:22.716Z,97936.59
2022-12-31T19:25:51.717Z,97942.75
2022-12-31T19:28:22.743Z,97946.25
2022-12-31T19:30:53.051Z,97943.72
2022-12-31T19:33:21.600Z,97932.41
2022-12-31T19:35:50.423Z,97940.50
2022-12-31T19:38:21.335Z,97942.63
2022-12-31T19:40:50.736Z,97947.22
2022-12-31T19:43:21.734Z,97958.09
2022-12-31T19:45:52.827Z,97952.81
2022-12-31T19:48:32.038Z,97960.91
2022-12-31T19:51:01.786Z,97959.66
2022-12-31T19:53:30.195Z,97969.25
2022-12-31T19:55:58.546Z,97969.41
2022-12-31T19:58:28.320Z,97978.47
2022-12-31T20:01:03.196Z,97985.00
2022-12-31T20:03:35.195Z,97991.31
2022-12-31T20:06:06.800Z,97982.09
2022-12-31T20:08:35.252Z,97980.00
2022-12-31T20:11:10.160Z,97990.16
2022-12-31T20:13:39.744Z,97969.50
2022-12-31T20:16:12.530Z,97968.97
2022-12-31T20:18:42.504Z,97974.50
2022-12-31T20:21:13.272Z,97980.88
2022-12-31T20:23:41.914Z,97970.44
2022-12-31T20:26:10.848Z,97963.59
2022-12-31T20:28:39.357Z,97972.69
2022-12-31T20:31:11.414Z,97977.13
2022-12-31T20:33:40.281Z,97983.28
2022-12-31T20:36:11.659Z,97977.25
2022-12-31T20:38:40.224Z,97971.25
2022-12-31T20:41:11.744Z,97970.56
2022-12-31T20:43:40.648Z,97969.00
2022-12-31T20:46:15.736Z,97972.78
2022-12-31T20:48:45.041Z,97978.06
2022-12-31T20:51:13.540Z,97988.94
2022-12-31T20:53:47.010Z,97987.41
2022-12-31T20:56:15.422Z,98004.25
2022-12-31T20:58:43.905Z,97999.78
2022-12-31T21:01:16.251Z,98005.34
2022-12-31T21:04:04.694Z,97993.22
2022-12-31T21:06:35.286Z,97995.31
2022-12-31T21:09:06.689Z,98008.53
2022-12-31T21:11:53.532Z,98001.44
2022-12-31T21:14:22.221Z,98020.25
2022-12-31T21:16:52.068Z,98027.47
2022-12-31T21:19:20.388Z,98025.66
2022-12-31T21:21:49.871Z,98034.59
2022-12-31T21:24:23.494Z,98058.81
2022-12-31T21:26:52.197Z,98058.81
2022-12-31T21:29:20.552Z,98040.69
2022-12-31T21:31:48.999Z,98059.34
2022-12-31T21:34:18.929Z,98040.22
2022-12-31T21:36:47.374Z,98039.78
2022-12-31T21:39:15.922Z,98036.69
2022-12-31T21:41:53.349Z,98022.16
2022-12-31T21:44:23.991Z,98026.91
2022-12-31T21:47:35.264Z,98031.59
2022-12-31T21:50:05.906Z,98039.22
2022-12-31T21:52:35.282Z,98033.22
2022-12-31T21:55:24.088Z,98036.00
2022-12-31T22:00:59.818Z,98023.69
2022-12-31T22:03:28.663Z,98028.25
2022-12-31T22:06:02.981Z,98018.78
2022-12-31T22:08:32.790Z,98014.34
2022-12-31T22:11:01.238Z,98019.63
2022-12-31T22:13:29.655Z,98004.84
2022-12-31T22:16:04.629Z,98001.50
2022-12-31T22:18:35.777Z,98016.41
2022-12-31T22:21:15.732Z,98025.44
2022-12-31T22:23:48.218Z,98022.78
2022-12-31T22:26:19.699Z,98028.34
2022-12-31T22:28:48.748Z,98029.75
2022-12-31T22:31:19.585Z,98019.16
2022-12-31T22:33:48.356Z,98014.84
2022-12-31T22:36:20.347Z,98026.13
2022-12-31T22:38:50.884Z,98021.81
2022-12-31T22:41:21.657Z,98016.41
2022-12-31T22:43:58.503Z,98006.94
2022-12-31T22:46:30.986Z,98007.88
2022-12-31T22:49:00.901Z,98011.38
2022-12-31T22:51:56.708Z,98008.00
2022-12-31T22:54:20.251Z,97998.41
2022-12-31T22:56:48.755Z,98007.31
2022-12-31T22:59:17.093Z,98008.97
2022-12-31T23:01:45.743Z,97999.50
2022-12-31T23:04:14.347Z,98007.69
2022-12-31T23:06:46.665Z,98007.69
2022-12-31T23:09:34.614Z,98006.25
2022-12-31T23:12:03.506Z,98013.63
2022-12-31T23:14:49.379Z,98011.22
2022-12-31T23:17:38.649Z,98020.25
2022-12-31T23:20:28.739Z,98025.81
2022-12-31T23:23:10.729Z,98028.72
2022-12-31T23:25:42.335Z,98038.44
2022-12-31T23:28:15.041Z,98035.03
2022-12-31T23:30:44.183Z,98036.84
2022-12-31T23:33:16.998Z,98029.88
2022-12-31T23:35:45.374Z,98024.72
2022-12-31T23:38:16.867Z,98024.03
2022-12-31T23:40:45.443Z,98024.16
2022-12-31T23:43:21.835Z,98036.63
2022-12-31T23:45:51.263Z,98036.63
2022-12-31T23:48:19.604Z,98033.16
2022-12-31T23:50:53.833Z,98038.56
2022-12-31T23:53:24.241Z,98035.09
2022-12-31T23:55:52.776Z,98039.66
2022-12-31T23:58:21.377Z,98031.00
